TGW261 WSSS-WIII
Flight info
| Callsign | TGW261 |
|---|---|
| Flight time | 1h 19m |
| Altitude | 37000 |
| Route | ANITO8B ANITO B470 BUNIK |
| Aircraft | A320/M-SDE3FGHIRWY/LB1 |
Departure
| Time | 2026-05-04 11:01 |
|---|---|
| Airport | Singapore Changi Airport (WSSS) |
Arrival
| Time | 2026-05-04 12:21 |
|---|---|
| Airport | Soekarno-Hatta International Airport (WIII) |
| Time | Latitude | Longitude | Altitude | Speed | Heading |
|---|---|---|---|---|---|
| 2026-05-04 10:47 | 1.35867 | 103.99156 | 31 ft | 0 kts | 293° |
| 2026-05-04 10:51 | 1.35862 | 103.99168 | 31 ft | 2 kts | 296° |
| 2026-05-04 10:52 | 1.35854 | 103.99182 | 32 ft | 2 kts | 299° |
| 2026-05-04 10:52 | 1.35846 | 103.99197 | 31 ft | 2 kts | 304° |
| 2026-05-04 10:52 | 1.35836 | 103.99210 | 32 ft | 2 kts | 313° |
| 2026-05-04 10:54 | 1.35786 | 103.99224 | 31 ft | 0 kts | 23° |
| 2026-05-04 10:56 | 1.35881 | 103.99412 | 32 ft | 11 kts | 100° |
| 2026-05-04 10:56 | 1.35851 | 103.99485 | 32 ft | 10 kts | 112° |
| 2026-05-04 10:56 | 1.35856 | 103.99552 | 32 ft | 11 kts | 45° |
| 2026-05-04 10:57 | 1.35932 | 103.99583 | 32 ft | 13 kts | 19° |
| 2026-05-04 10:57 | 1.36020 | 103.99621 | 32 ft | 15 kts | 23° |
| 2026-05-04 10:57 | 1.36113 | 103.99660 | 32 ft | 13 kts | 23° |
| 2026-05-04 10:57 | 1.36125 | 103.99725 | 31 ft | 0 kts | 114° |
| 2026-05-04 10:58 | 1.36123 | 103.99729 | 31 ft | 3 kts | 114° |
| 2026-05-04 10:58 | 1.36107 | 103.99764 | 30 ft | 7 kts | 115° |
| 2026-05-04 10:58 | 1.36073 | 103.99812 | 30 ft | 10 kts | 135° |
| 2026-05-04 10:58 | 1.36011 | 103.99821 | 30 ft | 10 kts | 204° |
| 2026-05-04 10:59 | 1.35996 | 103.99815 | 30 ft | 6 kts | 202° |
| 2026-05-04 10:59 | 1.35749 | 103.99711 | 33 ft | 72 kts | 202° |
| 2026-05-04 10:59 | 1.35102 | 103.99435 | 33 ft | 127 kts | 202° |
| 2026-05-04 10:59 | 1.34146 | 103.99030 | 35 ft | 170 kts | 204° |
| 2026-05-04 11:00 | 1.33017 | 103.98515 | 395 ft | 179 kts | 205° |
| 2026-05-04 11:01 | 1.23160 | 103.94625 | 3383 ft | 274 kts | 184° |
| 2026-05-04 11:02 | 1.21259 | 103.94795 | 4166 ft | 277 kts | 166° |
| 2026-05-04 11:02 | 1.19379 | 103.95258 | 4970 ft | 280 kts | 165° |
| 2026-05-04 11:05 | 0.99625 | 104.11092 | 6379 ft | 284 kts | 112° |
| 2026-05-04 11:06 | 0.98851 | 104.12913 | 7137 ft | 285 kts | 112° |
| 2026-05-04 11:06 | 0.98076 | 104.14745 | 7880 ft | 288 kts | 112° |
| 2026-05-04 11:06 | 0.97296 | 104.16596 | 8605 ft | 290 kts | 112° |
| 2026-05-04 11:06 | 0.96521 | 104.18436 | 9317 ft | 292 kts | 112° |
| 2026-05-04 11:08 | 0.88703 | 104.32337 | 12490 ft | 353 kts | 121° |
| 2026-05-04 11:10 | 0.79210 | 104.47166 | 16075 ft | 371 kts | 125° |
| 2026-05-04 11:12 | 0.65560 | 104.58804 | 19223 ft | 393 kts | 162° |
| 2026-05-04 11:12 | 0.62929 | 104.59579 | 19648 ft | 395 kts | 162° |
| 2026-05-04 11:12 | 0.60283 | 104.60363 | 20067 ft | 398 kts | 162° |
| 2026-05-04 11:12 | 0.57621 | 104.61154 | 20486 ft | 401 kts | 162° |
| 2026-05-04 11:13 | 0.54940 | 104.61952 | 20902 ft | 403 kts | 162° |
| 2026-05-04 11:13 | 0.52243 | 104.62757 | 21317 ft | 406 kts | 162° |
| 2026-05-04 11:13 | 0.49523 | 104.63569 | 21731 ft | 409 kts | 162° |
| 2026-05-04 11:13 | 0.46794 | 104.64384 | 22139 ft | 411 kts | 162° |
| 2026-05-04 11:14 | 0.45901 | 104.64649 | 22266 ft | 412 kts | 162° |
| 2026-05-04 11:14 | 0.40366 | 104.66286 | 23045 ft | 417 kts | 162° |
| 2026-05-04 11:16 | 0.18624 | 104.72732 | 25428 ft | 433 kts | 162° |
| 2026-05-04 11:16 | 0.15731 | 104.73587 | 25720 ft | 434 kts | 162° |
| 2026-05-04 11:16 | 0.12827 | 104.74443 | 26001 ft | 436 kts | 162° |
| 2026-05-04 11:17 | 0.09911 | 104.75305 | 26286 ft | 438 kts | 162° |
| 2026-05-04 11:17 | 0.06980 | 104.76176 | 26561 ft | 440 kts | 162° |
| 2026-05-04 11:19 | -0.13825 | 104.82358 | 28371 ft | 452 kts | 162° |
| 2026-05-04 11:19 | -0.16844 | 104.83256 | 28635 ft | 454 kts | 162° |
| 2026-05-04 11:19 | -0.19878 | 104.84160 | 28889 ft | 455 kts | 162° |
| 2026-05-04 11:19 | -0.22918 | 104.85064 | 29142 ft | 457 kts | 162° |
| 2026-05-04 11:20 | -0.25935 | 104.85968 | 29406 ft | 458 kts | 160° |
| 2026-05-04 11:20 | -0.28868 | 104.87189 | 29765 ft | 456 kts | 151° |
| 2026-05-04 11:20 | -0.31566 | 104.88843 | 30100 ft | 455 kts | 145° |
| 2026-05-04 11:20 | -0.34182 | 104.90613 | 30420 ft | 454 kts | 145° |
| 2026-05-04 11:22 | -0.52336 | 105.02896 | 32793 ft | 447 kts | 144° |
| 2026-05-04 11:22 | -0.54906 | 105.04641 | 33135 ft | 446 kts | 144° |
| 2026-05-04 11:23 | -0.57468 | 105.06378 | 33477 ft | 445 kts | 144° |
| 2026-05-04 11:23 | -0.60031 | 105.08113 | 33811 ft | 444 kts | 144° |
| 2026-05-04 11:24 | -0.75327 | 105.18457 | 35378 ft | 441 kts | 145° |
| 2026-05-04 11:25 | -0.77863 | 105.20178 | 35621 ft | 441 kts | 145° |
| 2026-05-04 11:25 | -0.80398 | 105.21899 | 35859 ft | 440 kts | 145° |
| 2026-05-04 11:25 | -0.82931 | 105.23616 | 36104 ft | 440 kts | 145° |
| 2026-05-04 11:26 | -0.87953 | 105.27018 | 36562 ft | 439 kts | 145° |
| 2026-05-04 11:27 | -1.05938 | 105.39168 | 36879 ft | 452 kts | 145° |
| 2026-05-04 11:28 | -1.11140 | 105.42692 | 36880 ft | 452 kts | 145° |
| 2026-05-04 11:28 | -1.16341 | 105.46220 | 36883 ft | 452 kts | 145° |
| 2026-05-04 11:29 | -1.21548 | 105.49744 | 36890 ft | 452 kts | 145° |
| 2026-05-04 11:29 | -1.26757 | 105.53265 | 36889 ft | 452 kts | 145° |
| 2026-05-04 11:33 | -1.63184 | 105.77938 | 36899 ft | 452 kts | 145° |
| 2026-05-04 11:33 | -1.68401 | 105.81469 | 36905 ft | 452 kts | 145° |
| 2026-05-04 11:34 | -1.73613 | 105.84996 | 36901 ft | 452 kts | 145° |
| 2026-05-04 11:34 | -1.78830 | 105.88529 | 36903 ft | 453 kts | 145° |
| 2026-05-04 11:35 | -1.83829 | 105.91910 | 36907 ft | 453 kts | 145° |
| 2026-05-04 11:35 | -1.89047 | 105.95446 | 36908 ft | 453 kts | 145° |
| 2026-05-04 11:36 | -1.94259 | 105.98979 | 36906 ft | 453 kts | 145° |
| 2026-05-04 11:36 | -1.99468 | 106.02511 | 36908 ft | 453 kts | 145° |
| 2026-05-04 11:37 | -2.04683 | 106.06043 | 36909 ft | 453 kts | 145° |
| 2026-05-04 11:37 | -2.09897 | 106.09579 | 36910 ft | 453 kts | 145° |
| 2026-05-04 11:38 | -2.15137 | 106.12990 | 36907 ft | 453 kts | 152° |
| 2026-05-04 11:38 | -2.21099 | 106.14972 | 36907 ft | 454 kts | 170° |
| 2026-05-04 11:39 | -2.27333 | 106.16019 | 36910 ft | 454 kts | 169° |
| 2026-05-04 11:41 | -2.48914 | 106.19711 | 36910 ft | 454 kts | 169° |
| 2026-05-04 11:41 | -2.55143 | 106.20772 | 36907 ft | 454 kts | 169° |
| 2026-05-04 11:42 | -2.61319 | 106.21829 | 36909 ft | 453 kts | 169° |
| 2026-05-04 11:42 | -2.67542 | 106.22895 | 36909 ft | 453 kts | 169° |
| 2026-05-04 11:43 | -2.73763 | 106.23964 | 36903 ft | 452 kts | 169° |
| 2026-05-04 11:43 | -2.79963 | 106.25031 | 36905 ft | 452 kts | 169° |
| 2026-05-04 11:44 | -2.86164 | 106.26094 | 36904 ft | 452 kts | 169° |
| 2026-05-04 11:44 | -2.92362 | 106.27149 | 36900 ft | 451 kts | 169° |
| 2026-05-04 11:45 | -2.98553 | 106.28208 | 36899 ft | 452 kts | 169° |
| 2026-05-04 11:45 | -3.04754 | 106.29268 | 36896 ft | 452 kts | 169° |
| 2026-05-04 11:46 | -3.10908 | 106.30325 | 36899 ft | 452 kts | 169° |
| 2026-05-04 11:46 | -3.17110 | 106.31391 | 36894 ft | 452 kts | 169° |
| 2026-05-04 11:47 | -3.23320 | 106.32455 | 36899 ft | 453 kts | 169° |
| 2026-05-04 11:47 | -3.29538 | 106.33516 | 36897 ft | 453 kts | 169° |
| 2026-05-04 11:48 | -3.35755 | 106.34574 | 36897 ft | 454 kts | 169° |
| 2026-05-04 11:48 | -3.41980 | 106.35641 | 36899 ft | 454 kts | 169° |
| 2026-05-04 11:49 | -3.48202 | 106.36715 | 36901 ft | 454 kts | 169° |
| 2026-05-04 11:49 | -3.54430 | 106.37785 | 36901 ft | 454 kts | 169° |
| 2026-05-04 11:50 | -3.60653 | 106.38855 | 36897 ft | 454 kts | 169° |
| 2026-05-04 11:50 | -3.66876 | 106.39948 | 36889 ft | 454 kts | 168° |
| 2026-05-04 11:51 | -3.73081 | 106.41118 | 36895 ft | 454 kts | 168° |
| 2026-05-04 11:51 | -3.79242 | 106.42293 | 36892 ft | 454 kts | 168° |
| 2026-05-04 11:51 | -3.82365 | 106.42886 | 36748 ft | 461 kts | 168° |
| 2026-05-04 11:52 | -3.85525 | 106.43485 | 36497 ft | 461 kts | 168° |
| 2026-05-04 11:52 | -3.87644 | 106.43883 | 36330 ft | 456 kts | 168° |
| 2026-05-04 11:52 | -3.90715 | 106.44457 | 36089 ft | 453 kts | 168° |
| 2026-05-04 11:52 | -3.93803 | 106.45029 | 35846 ft | 451 kts | 168° |
| 2026-05-04 11:53 | -3.96878 | 106.45601 | 35612 ft | 449 kts | 168° |
| 2026-05-04 11:53 | -3.99950 | 106.46175 | 35375 ft | 448 kts | 168° |
| 2026-05-04 11:53 | -4.03007 | 106.46748 | 35143 ft | 447 kts | 168° |
| 2026-05-04 11:53 | -4.06061 | 106.47318 | 34916 ft | 446 kts | 168° |
| 2026-05-04 11:55 | -4.27243 | 106.51280 | 32491 ft | 442 kts | 167° |
| 2026-05-04 11:55 | -4.30259 | 106.51845 | 31987 ft | 440 kts | 167° |
| 2026-05-04 11:56 | -4.33261 | 106.52406 | 31486 ft | 438 kts | 167° |
| 2026-05-04 11:56 | -4.36248 | 106.52966 | 30994 ft | 436 kts | 167° |
| 2026-05-04 11:56 | -4.39227 | 106.53528 | 30493 ft | 435 kts | 167° |
| 2026-05-04 11:56 | -4.42196 | 106.54088 | 30001 ft | 433 kts | 167° |
| 2026-05-04 11:57 | -4.45155 | 106.54644 | 29463 ft | 431 kts | 167° |
| 2026-05-04 11:57 | -4.48059 | 106.55188 | 28995 ft | 428 kts | 167° |
| 2026-05-04 11:57 | -4.50974 | 106.55733 | 28531 ft | 424 kts | 167° |
| 2026-05-04 11:57 | -4.53867 | 106.56273 | 28069 ft | 421 kts | 167° |
| 2026-05-04 11:58 | -4.56744 | 106.56810 | 27614 ft | 419 kts | 167° |
| 2026-05-04 11:58 | -4.59592 | 106.57341 | 27185 ft | 416 kts | 167° |
| 2026-05-04 11:58 | -4.62435 | 106.57876 | 26751 ft | 414 kts | 167° |
| 2026-05-04 11:58 | -4.65255 | 106.58409 | 26327 ft | 412 kts | 167° |
| 2026-05-04 11:59 | -4.68065 | 106.58939 | 25910 ft | 410 kts | 167° |
| 2026-05-04 11:59 | -4.70863 | 106.59466 | 25477 ft | 409 kts | 167° |
| 2026-05-04 11:59 | -4.73656 | 106.59991 | 25044 ft | 408 kts | 167° |
| 2026-05-04 11:59 | -4.76445 | 106.60510 | 24606 ft | 407 kts | 167° |
| 2026-05-04 12:00 | -4.79227 | 106.61026 | 24151 ft | 407 kts | 167° |
| 2026-05-04 12:00 | -4.82013 | 106.61544 | 23707 ft | 407 kts | 167° |
| 2026-05-04 12:00 | -4.84799 | 106.62070 | 23214 ft | 406 kts | 165° |
| 2026-05-04 12:00 | -4.87462 | 106.62912 | 22876 ft | 397 kts | 153° |
| 2026-05-04 12:01 | -4.89930 | 106.64054 | 22744 ft | 386 kts | 153° |
| 2026-05-04 12:01 | -4.92339 | 106.65162 | 22309 ft | 375 kts | 153° |
| 2026-05-04 12:02 | -5.05677 | 106.71234 | 19235 ft | 326 kts | 153° |
| 2026-05-04 12:03 | -5.07738 | 106.72179 | 18839 ft | 325 kts | 153° |
| 2026-05-04 12:03 | -5.09805 | 106.73128 | 18439 ft | 328 kts | 153° |
| 2026-05-04 12:03 | -5.11855 | 106.74067 | 18021 ft | 329 kts | 154° |
| 2026-05-04 12:03 | -5.13969 | 106.75033 | 17583 ft | 329 kts | 154° |
| 2026-05-04 12:04 | -5.16021 | 106.75972 | 17182 ft | 328 kts | 154° |
| 2026-05-04 12:04 | -5.18101 | 106.76923 | 16914 ft | 331 kts | 154° |
| 2026-05-04 12:04 | -5.20224 | 106.77890 | 16893 ft | 338 kts | 154° |
| 2026-05-04 12:04 | -5.22382 | 106.78867 | 16901 ft | 341 kts | 154° |
| 2026-05-04 12:05 | -5.24538 | 106.79841 | 16687 ft | 336 kts | 154° |
| 2026-05-04 12:05 | -5.26663 | 106.80799 | 15957 ft | 334 kts | 154° |
| 2026-05-04 12:05 | -5.28771 | 106.81750 | 15286 ft | 331 kts | 154° |
| 2026-05-04 12:05 | -5.30855 | 106.82695 | 14639 ft | 327 kts | 154° |
| 2026-05-04 12:06 | -5.32924 | 106.83634 | 14008 ft | 324 kts | 154° |
| 2026-05-04 12:06 | -5.34970 | 106.84562 | 13357 ft | 321 kts | 154° |
| 2026-05-04 12:06 | -5.36994 | 106.85479 | 12694 ft | 318 kts | 154° |
| 2026-05-04 12:06 | -5.39002 | 106.86388 | 12090 ft | 316 kts | 154° |
| 2026-05-04 12:07 | -5.41000 | 106.87292 | 11772 ft | 315 kts | 154° |
| 2026-05-04 12:07 | -5.42996 | 106.88195 | 11415 ft | 313 kts | 154° |
| 2026-05-04 12:07 | -5.44948 | 106.89077 | 11292 ft | 303 kts | 154° |
| 2026-05-04 12:07 | -5.46874 | 106.89853 | 11158 ft | 295 kts | 163° |
| 2026-05-04 12:08 | -5.48854 | 106.90139 | 10950 ft | 291 kts | 178° |
| 2026-05-04 12:08 | -5.50875 | 106.90106 | 10657 ft | 290 kts | 179° |
| 2026-05-04 12:08 | -5.52896 | 106.90073 | 10316 ft | 290 kts | 179° |
| 2026-05-04 12:08 | -5.54917 | 106.90044 | 9983 ft | 291 kts | 179° |
| 2026-05-04 12:09 | -5.56931 | 106.90014 | 9662 ft | 290 kts | 179° |
| 2026-05-04 12:09 | -5.58918 | 106.89985 | 9241 ft | 282 kts | 179° |
| 2026-05-04 12:09 | -5.60867 | 106.89959 | 8903 ft | 280 kts | 179° |
| 2026-05-04 12:09 | -5.62819 | 106.89933 | 8568 ft | 280 kts | 179° |
| 2026-05-04 12:10 | -5.64766 | 106.89906 | 8222 ft | 280 kts | 179° |
| 2026-05-04 12:10 | -5.66705 | 106.89877 | 7932 ft | 278 kts | 179° |
| 2026-05-04 12:10 | -5.68635 | 106.89849 | 7620 ft | 277 kts | 179° |
| 2026-05-04 12:10 | -5.70551 | 106.89822 | 7309 ft | 276 kts | 179° |
| 2026-05-04 12:11 | -5.72457 | 106.89794 | 7075 ft | 271 kts | 179° |
| 2026-05-04 12:11 | -5.74330 | 106.89758 | 6764 ft | 269 kts | 179° |
| 2026-05-04 12:11 | -5.76196 | 106.89718 | 6311 ft | 264 kts | 180° |
| 2026-05-04 12:11 | -5.77963 | 106.89678 | 6192 ft | 245 kts | 179° |
| 2026-05-04 12:12 | -5.79616 | 106.89641 | 5932 ft | 233 kts | 179° |
| 2026-05-04 12:12 | -5.81219 | 106.89607 | 5470 ft | 229 kts | 179° |
| 2026-05-04 12:12 | -5.82814 | 106.89574 | 5012 ft | 228 kts | 179° |
| 2026-05-04 12:12 | -5.84393 | 106.89541 | 4531 ft | 226 kts | 179° |
| 2026-05-04 12:13 | -5.85943 | 106.89507 | 4045 ft | 225 kts | 179° |
| 2026-05-04 12:14 | -5.96619 | 106.88785 | 2989 ft | 211 kts | 211° |
| 2026-05-04 12:15 | -5.97755 | 106.87864 | 2824 ft | 210 kts | 219° |
| 2026-05-04 12:15 | -5.98858 | 106.86905 | 2679 ft | 209 kts | 219° |
| 2026-05-04 12:15 | -5.99962 | 106.85947 | 2537 ft | 210 kts | 219° |
| 2026-05-04 12:15 | -6.01064 | 106.84992 | 2402 ft | 209 kts | 219° |
| 2026-05-04 12:16 | -6.02162 | 106.84042 | 2278 ft | 206 kts | 219° |
| 2026-05-04 12:16 | -6.03202 | 106.83141 | 2160 ft | 189 kts | 219° |
| 2026-05-04 12:16 | -6.04106 | 106.82267 | 2051 ft | 173 kts | 233° |
| 2026-05-04 12:16 | -6.04638 | 106.81233 | 2014 ft | 163 kts | 245° |
| 2026-05-04 12:17 | -6.05085 | 106.80199 | 2010 ft | 160 kts | 246° |
| 2026-05-04 12:17 | -6.05508 | 106.79172 | 2030 ft | 157 kts | 246° |
| 2026-05-04 12:17 | -6.05917 | 106.78160 | 2012 ft | 156 kts | 247° |
| 2026-05-04 12:17 | -6.06322 | 106.77151 | 1992 ft | 155 kts | 247° |
| 2026-05-04 12:18 | -6.06725 | 106.76144 | 1857 ft | 155 kts | 247° |
| 2026-05-04 12:18 | -6.07125 | 106.75142 | 1688 ft | 154 kts | 248° |
| 2026-05-04 12:18 | -6.07522 | 106.74146 | 1485 ft | 153 kts | 247° |
| 2026-05-04 12:18 | -6.07915 | 106.73156 | 1288 ft | 152 kts | 247° |
| 2026-05-04 12:19 | -6.08305 | 106.72172 | 1090 ft | 152 kts | 247° |
| 2026-05-04 12:19 | -6.08698 | 106.71194 | 911 ft | 150 kts | 246° |
| 2026-05-04 12:19 | -6.09082 | 106.70223 | 732 ft | 149 kts | 247° |
| 2026-05-04 12:19 | -6.09466 | 106.69266 | 547 ft | 147 kts | 245° |
| 2026-05-04 12:20 | -6.09842 | 106.68322 | 332 ft | 144 kts | 246° |
| 2026-05-04 12:20 | -6.10204 | 106.67409 | 157 ft | 143 kts | 246° |
| 2026-05-04 12:20 | -6.10579 | 106.66474 | 35 ft | 135 kts | 247° |
| 2026-05-04 12:20 | -6.10867 | 106.65744 | 35 ft | 90 kts | 249° |
| 2026-05-04 12:21 | -6.11037 | 106.65322 | 32 ft | 40 kts | 247° |
| 2026-05-04 12:21 | -6.11113 | 106.65134 | 35 ft | 27 kts | 248° |
| 2026-05-04 12:21 | -6.11180 | 106.64959 | 36 ft | 24 kts | 249° |
| 2026-05-04 12:21 | -6.11246 | 106.64848 | 38 ft | 13 kts | 231° |
| 2026-05-04 12:22 | -6.11290 | 106.64800 | 38 ft | 7 kts | 221° |
| 2026-05-04 12:22 | -6.11331 | 106.64765 | 38 ft | 9 kts | 220° |
| 2026-05-04 12:22 | -6.11387 | 106.64724 | 38 ft | 11 kts | 215° |
| 2026-05-04 12:22 | -6.11461 | 106.64706 | 37 ft | 13 kts | 171° |
| 2026-05-04 12:23 | -6.11552 | 106.64743 | 37 ft | 16 kts | 159° |
| 2026-05-04 12:23 | -6.11625 | 106.64770 | 37 ft | 10 kts | 160° |
| 2026-05-04 12:23 | -6.11695 | 106.64794 | 38 ft | 11 kts | 169° |
| 2026-05-04 12:23 | -6.11768 | 106.64753 | 38 ft | 14 kts | 226° |
| 2026-05-04 12:24 | -6.11837 | 106.64686 | 37 ft | 11 kts | 218° |
| 2026-05-04 12:24 | -6.11868 | 106.64663 | 37 ft | 1 kts | 216° |
| 2026-05-04 12:24 | -6.11881 | 106.64654 | 37 ft | 4 kts | 216° |
| 2026-05-04 12:24 | -6.11911 | 106.64638 | 37 ft | 6 kts | 198° |
| 2026-05-04 12:25 | -6.11960 | 106.64650 | 37 ft | 9 kts | 139° |
| 2026-05-04 12:25 | -6.11956 | 106.64714 | 36 ft | 11 kts | 67° |
| 2026-05-04 12:25 | -6.11924 | 106.64791 | 36 ft | 13 kts | 67° |
| 2026-05-04 12:25 | -6.11887 | 106.64885 | 36 ft | 16 kts | 68° |
| 2026-05-04 12:26 | -6.11843 | 106.64994 | 36 ft | 18 kts | 68° |
| 2026-05-04 12:26 | -6.11800 | 106.65106 | 35 ft | 16 kts | 67° |
| 2026-05-04 12:26 | -6.11768 | 106.65184 | 35 ft | 12 kts | 68° |
| 2026-05-04 12:26 | -6.11744 | 106.65242 | 35 ft | 8 kts | 68° |
| 2026-05-04 12:27 | -6.11721 | 106.65300 | 35 ft | 11 kts | 68° |
| 2026-05-04 12:27 | -6.11687 | 106.65384 | 34 ft | 15 kts | 68° |
| 2026-05-04 12:27 | -6.11646 | 106.65488 | 33 ft | 17 kts | 69° |
| 2026-05-04 12:27 | -6.11623 | 106.65547 | 33 ft | 4 kts | 68° |
| 2026-05-04 12:28 | -6.11611 | 106.65579 | 32 ft | 6 kts | 69° |
| 2026-05-04 12:28 | -6.11586 | 106.65645 | 33 ft | 18 kts | 68° |
| 2026-05-04 12:28 | -6.11546 | 106.65742 | 33 ft | 13 kts | 69° |
| 2026-05-04 12:28 | -6.11512 | 106.65827 | 32 ft | 13 kts | 68° |
| 2026-05-04 12:29 | -6.11528 | 106.65897 | 32 ft | 12 kts | 142° |
| 2026-05-04 12:29 | -6.11608 | 106.65939 | 33 ft | 15 kts | 151° |
| 2026-05-04 12:29 | -6.11696 | 106.65979 | 32 ft | 15 kts | 158° |
| 2026-05-04 12:29 | -6.11778 | 106.66011 | 33 ft | 14 kts | 159° |
| 2026-05-04 12:30 | -6.11849 | 106.66046 | 33 ft | 10 kts | 149° |
| 2026-05-04 12:30 | -6.11900 | 106.66071 | 33 ft | 5 kts | 163° |
| 2026-05-04 12:30 | -6.11916 | 106.66075 | 33 ft | 0 kts | 163° |